createdAt,value
2023-03-20T00:02:25.629Z,6.67
2023-03-20T00:04:55.971Z,6.68
2023-03-20T00:07:24.759Z,6.70
2023-03-20T00:09:57.766Z,6.67
2023-03-20T00:12:27.292Z,6.66
2023-03-20T00:14:55.587Z,6.65
2023-03-20T00:17:26.779Z,6.63
2023-03-20T00:19:56.836Z,6.62
2023-03-20T00:22:25.754Z,6.63
2023-03-20T00:24:54.718Z,6.66
2023-03-20T00:27:23.136Z,6.71
2023-03-20T00:29:51.962Z,6.79
2023-03-20T00:32:20.564Z,6.86
2023-03-20T00:34:50.026Z,6.90
2023-03-20T00:37:19.910Z,6.96
2023-03-20T00:39:48.340Z,7.04
2023-03-20T00:42:22.506Z,7.10
2023-03-20T00:44:54.015Z,7.15
2023-03-20T00:47:27.134Z,7.22
2023-03-20T00:49:57.926Z,7.24
2023-03-20T00:52:28.710Z,7.28
2023-03-20T00:54:57.049Z,7.36
2023-03-20T00:57:28.810Z,7.44
2023-03-20T01:00:00.399Z,7.47
2023-03-20T01:02:31.648Z,7.51
2023-03-20T01:05:02.329Z,7.53
2023-03-20T01:07:32.035Z,7.60
2023-03-20T01:10:00.583Z,7.61
2023-03-20T01:12:29.169Z,7.60
2023-03-20T01:14:59.646Z,7.64
2023-03-20T01:17:31.880Z,7.66
2023-03-20T01:20:00.105Z,7.64
2023-03-20T01:22:28.593Z,7.69
2023-03-20T01:24:58.098Z,7.70
2023-03-20T01:27:26.676Z,7.72
2023-03-20T01:29:55.055Z,7.70
2023-03-20T01:32:24.014Z,7.69
2023-03-20T01:34:54.733Z,7.70
2023-03-20T01:37:25.955Z,7.74
2023-03-20T01:39:55.290Z,7.74
2023-03-20T01:42:25.346Z,7.74
2023-03-20T01:44:53.791Z,7.78
2023-03-20T01:47:24.487Z,7.77
2023-03-20T01:50:35.825Z,7.79
2023-03-20T01:53:15.210Z,7.83
2023-03-20T01:55:55.299Z,7.81
2023-03-20T01:58:31.045Z,7.82
2023-03-20T02:01:01.449Z,7.83
2023-03-20T02:03:29.904Z,7.82
2023-03-20T02:06:18.179Z,7.85
2023-03-20T02:09:18.983Z,7.85
2023-03-20T02:11:48.964Z,7.86
2023-03-20T02:14:21.761Z,7.84
2023-03-20T02:16:58.856Z,7.84
2023-03-20T02:19:49.884Z,7.86
2023-03-20T02:22:41.024Z,7.87
2023-03-20T02:25:49.128Z,7.87
2023-03-20T02:28:42.902Z,7.92
2023-03-20T02:31:48.865Z,7.89
2023-03-20T02:34:44.528Z,7.91
2023-03-20T02:37:36.255Z,7.92
2023-03-20T02:40:18.664Z,7.98
2023-03-20T02:42:55.165Z,7.97
2023-03-20T02:45:29.267Z,7.97
2023-03-20T02:48:17.392Z,7.98
2023-03-20T02:50:51.048Z,8.01
2023-03-20T02:53:36.217Z,8.06
2023-03-20T02:56:14.819Z,8.07
2023-03-20T02:58:50.717Z,8.07
2023-03-20T03:01:27.994Z,8.05
2023-03-20T03:04:01.578Z,8.09
2023-03-20T03:06:32.701Z,8.10
2023-03-20T03:09:08.154Z,8.09
2023-03-20T03:11:40.513Z,8.12
2023-03-20T03:14:15.579Z,8.13
2023-03-20T03:16:46.320Z,8.18
2023-03-20T03:19:20.857Z,8.15
2023-03-20T03:21:50.021Z,8.17
2023-03-20T03:24:40.457Z,8.18
2023-03-20T03:27:18.776Z,8.21
2023-03-20T03:29:52.573Z,8.29
2023-03-20T03:32:32.847Z,8.25
2023-03-20T03:35:02.302Z,8.26
2023-03-20T03:37:44.254Z,8.22
2023-03-20T03:40:23.125Z,8.21
2023-03-20T03:42:58.482Z,8.21
2023-03-20T03:45:33.559Z,8.19
2023-03-20T03:48:08.028Z,8.23
2023-03-20T03:50:48.790Z,8.21
2023-03-20T03:53:23.719Z,8.22
2023-03-20T03:55:56.669Z,8.21
2023-03-20T03:58:31.015Z,8.23
2023-03-20T04:01:03.363Z,8.23
2023-03-20T04:03:34.940Z,8.28
2023-03-20T04:06:06.076Z,8.28
2023-03-20T04:08:34.830Z,8.27
2023-03-20T04:11:04.578Z,8.38
2023-03-20T04:13:33.254Z,8.31
2023-03-20T04:16:01.754Z,8.29
2023-03-20T04:18:31.678Z,8.29
2023-03-20T04:21:00.541Z,8.30
2023-03-20T04:23:29.586Z,8.30
2023-03-20T04:25:58.461Z,8.29
2023-03-20T04:28:28.605Z,8.31
2023-03-20T04:31:05.983Z,8.32
2023-03-20T04:33:53.079Z,8.33
2023-03-20T04:36:47.391Z,8.32
2023-03-20T04:39:18.051Z,8.30
2023-03-20T04:41:47.192Z,8.30
2023-03-20T04:44:17.152Z,8.38
2023-03-20T04:46:47.450Z,8.36
2023-03-20T04:49:18.156Z,8.40
2023-03-20T04:51:47.798Z,8.38
2023-03-20T04:54:18.903Z,8.35
2023-03-20T04:56:48.134Z,8.35
2023-03-20T04:59:21.161Z,8.35
2023-03-20T05:01:49.989Z,8.37
2023-03-20T05:04:20.100Z,8.39
2023-03-20T05:06:49.406Z,8.40
2023-03-20T05:09:22.148Z,8.38
2023-03-20T05:11:52.820Z,8.41
2023-03-20T05:14:41.539Z,8.39
2023-03-20T05:17:28.573Z,8.39
2023-03-20T05:20:16.821Z,8.41
2023-03-20T05:23:06.292Z,8.41
2023-03-20T05:25:53.495Z,8.42
2023-03-20T05:28:38.193Z,8.40
2023-03-20T05:31:25.739Z,8.38
2023-03-20T05:34:33.182Z,8.39
2023-03-20T05:37:20.440Z,8.47
2023-03-20T05:40:20.712Z,8.46
2023-03-20T05:43:17.016Z,8.47
2023-03-20T05:46:12.241Z,8.48
2023-03-20T05:48:44.976Z,8.48
2023-03-20T05:51:18.979Z,8.48
2023-03-20T05:54:13.393Z,8.59
2023-03-20T05:57:07.142Z,8.58
2023-03-20T05:59:53.512Z,8.63
2023-03-20T06:02:27.410Z,8.60
2023-03-20T06:05:07.310Z,8.59
2023-03-20T06:07:50.395Z,8.56
2023-03-20T06:10:20.749Z,8.56
2023-03-20T06:12:55.444Z,8.62
2023-03-20T06:15:27.176Z,8.64
2023-03-20T06:18:02.024Z,8.61
2023-03-20T06:20:35.072Z,8.61
2023-03-20T06:23:06.377Z,8.64
2023-03-20T06:25:35.795Z,8.58
2023-03-20T06:28:05.830Z,8.61
2023-03-20T06:30:34.792Z,8.61
2023-03-20T06:33:04.022Z,8.62
2023-03-20T06:35:41.867Z,8.67
2023-03-20T06:38:10.879Z,8.69
2023-03-20T06:40:39.462Z,8.69
2023-03-20T06:43:07.800Z,8.70
2023-03-20T06:45:48.421Z,8.72
2023-03-20T06:48:24.923Z,8.78
2023-03-20T06:50:55.107Z,8.86
2023-03-20T06:53:29.322Z,8.82
2023-03-20T06:56:07.352Z,8.82
2023-03-20T06:58:41.306Z,8.82
2023-03-20T07:01:20.186Z,8.78
2023-03-20T07:03:51.969Z,8.75
2023-03-20T07:06:29.789Z,8.78
2023-03-20T07:08:59.954Z,8.77
2023-03-20T07:11:30.344Z,8.72
2023-03-20T07:13:59.629Z,8.68
2023-03-20T07:16:41.745Z,8.72
2023-03-20T07:19:10.038Z,8.74
2023-03-20T07:21:53.080Z,8.75
2023-03-20T07:24:22.642Z,8.76
2023-03-20T07:26:54.604Z,8.86
2023-03-20T07:32:14.155Z,8.94
2023-03-20T07:34:50.206Z,9.03
2023-03-20T07:37:21.496Z,9.09
2023-03-20T07:39:59.192Z,9.15
2023-03-20T07:42:31.499Z,9.10
2023-03-20T07:45:09.457Z,9.13
2023-03-20T07:47:38.113Z,9.12
2023-03-20T07:50:08.387Z,9.17
2023-03-20T07:52:38.514Z,9.18
2023-03-20T07:55:09.844Z,9.16
2023-03-20T07:57:38.515Z,9.14
2023-03-20T08:00:08.823Z,9.03
2023-03-20T08:02:40.121Z,9.12
2023-03-20T08:05:10.748Z,9.19
2023-03-20T08:07:40.514Z,9.16
2023-03-20T08:10:09.980Z,9.10
2023-03-20T08:12:38.210Z,9.06
2023-03-20T08:15:07.438Z,9.00
2023-03-20T08:17:35.904Z,9.03
2023-03-20T08:20:05.247Z,9.01
2023-03-20T08:22:33.423Z,9.00
2023-03-20T08:25:04.241Z,8.99
2023-03-20T08:27:32.383Z,8.99
2023-03-20T08:30:00.631Z,9.08
2023-03-20T08:32:28.771Z,9.19
2023-03-20T08:34:57.200Z,9.20
2023-03-20T08:37:25.396Z,9.37
2023-03-20T08:39:53.723Z,9.36
2023-03-20T08:42:23.353Z,9.39
2023-03-20T08:44:53.143Z,9.44
2023-03-20T08:47:21.269Z,9.36
2023-03-20T08:49:49.486Z,9.40
2023-03-20T08:52:20.437Z,9.43
2023-03-20T08:54:48.611Z,9.48
2023-03-20T08:57:17.356Z,9.53
2023-03-20T08:59:46.884Z,9.52
2023-03-20T09:02:16.867Z,9.35
2023-03-20T09:04:45.473Z,9.33
2023-03-20T09:07:13.792Z,9.20
2023-03-20T09:09:42.380Z,9.17
2023-03-20T09:12:10.907Z,9.17
2023-03-20T09:14:39.302Z,9.16
2023-03-20T09:17:09.346Z,9.21
2023-03-20T09:19:39.827Z,9.19
2023-03-20T09:22:08.226Z,9.15
2023-03-20T09:24:36.308Z,9.18
2023-03-20T09:27:04.993Z,9.23
2023-03-20T09:29:35.817Z,9.20
2023-03-20T09:32:04.542Z,9.31
2023-03-20T09:34:34.126Z,9.34
2023-03-20T09:37:03.291Z,9.40
2023-03-20T09:39:31.740Z,9.45
2023-03-20T09:42:04.634Z,9.47
2023-03-20T09:44:47.270Z,9.50
2023-03-20T09:47:24.633Z,9.64
2023-03-20T09:50:22.242Z,9.93
2023-03-20T09:52:58.282Z,10.18
2023-03-20T09:55:35.171Z,10.43
2023-03-20T09:58:09.996Z,10.57
2023-03-20T10:00:38.798Z,10.67
2023-03-20T10:03:13.643Z,10.90
2023-03-20T10:05:47.361Z,11.23
2023-03-20T10:08:18.125Z,11.41
2023-03-20T10:10:52.404Z,11.18
2023-03-20T10:13:40.743Z,11.53
2023-03-20T10:16:18.412Z,11.75
2023-03-20T10:18:52.627Z,11.78
2023-03-20T10:21:32.083Z,12.15
2023-03-20T10:24:04.478Z,12.26
2023-03-20T10:26:36.089Z,12.17
2023-03-20T10:29:16.561Z,12.21
2023-03-20T10:31:52.974Z,12.55
2023-03-20T10:34:32.080Z,12.95
2023-03-20T10:37:21.746Z,13.02
2023-03-20T10:39:59.499Z,12.82
2023-03-20T10:42:31.893Z,12.98
2023-03-20T10:45:03.534Z,13.27
2023-03-20T10:47:36.440Z,13.39
2023-03-20T10:50:09.141Z,13.27
2023-03-20T10:52:42.367Z,13.99
2023-03-20T10:55:15.522Z,14.04
2023-03-20T10:57:49.781Z,14.35
2023-03-20T11:00:23.729Z,14.49
2023-03-20T11:02:52.584Z,14.76
2023-03-20T11:05:24.992Z,14.95
2023-03-20T11:08:04.208Z,15.24
2023-03-20T11:10:33.831Z,15.56
2023-03-20T11:13:14.522Z,15.14
2023-03-20T11:15:47.188Z,15.10
2023-03-20T11:18:16.713Z,15.13
2023-03-20T11:20:48.389Z,15.20
2023-03-20T11:23:21.024Z,15.05
2023-03-20T11:25:54.459Z,15.02
2023-03-20T11:28:31.582Z,15.32
2023-03-20T11:31:04.962Z,15.19
2023-03-20T11:33:38.772Z,14.92
2023-03-20T11:36:13.271Z,14.82
2023-03-20T11:38:46.900Z,14.74
2023-03-20T11:41:24.090Z,14.53
2023-03-20T11:43:52.796Z,14.44
2023-03-20T11:46:23.400Z,14.31
2023-03-20T11:49:06.942Z,13.86
2023-03-20T11:51:38.073Z,13.77
2023-03-20T11:54:15.507Z,13.61
2023-03-20T11:56:54.461Z,13.38
2023-03-20T11:59:24.192Z,13.43
2023-03-20T12:01:55.966Z,13.37
2023-03-20T12:04:29.656Z,13.43
2023-03-20T12:07:04.595Z,13.49
2023-03-20T12:09:39.738Z,13.75
2023-03-20T12:12:17.585Z,13.74
2023-03-20T12:14:54.438Z,13.68
2023-03-20T12:17:39.548Z,13.93
2023-03-20T12:20:17.520Z,14.01
2023-03-20T12:22:54.496Z,14.13
2023-03-20T12:25:27.838Z,14.23
2023-03-20T12:28:04.622Z,14.25
2023-03-20T12:30:46.258Z,14.26
2023-03-20T12:33:21.209Z,14.27
2023-03-20T12:35:53.216Z,14.26
2023-03-20T12:38:28.556Z,14.14
2023-03-20T12:41:03.707Z,14.38
2023-03-20T12:43:44.567Z,13.82
2023-03-20T12:46:27.209Z,14.16
2023-03-20T12:49:10.423Z,14.62
2023-03-20T12:51:53.969Z,14.57
2023-03-20T12:54:38.874Z,14.97
2023-03-20T12:57:17.717Z,15.00
2023-03-20T13:00:03.189Z,15.12
2023-03-20T13:02:42.304Z,15.17
2023-03-20T13:05:24.111Z,15.13
2023-03-20T13:08:12.055Z,15.05
2023-03-20T13:10:54.332Z,14.84
2023-03-20T13:13:31.992Z,14.89
2023-03-20T13:16:13.209Z,14.94
2023-03-20T13:18:53.296Z,14.82
2023-03-20T13:21:29.988Z,14.95
2023-03-20T13:24:13.086Z,14.79
2023-03-20T13:26:50.638Z,14.76
2023-03-20T13:29:27.753Z,14.37
2023-03-20T13:32:08.652Z,14.13
2023-03-20T13:34:54.895Z,14.10
2023-03-20T13:37:31.727Z,14.19
2023-03-20T13:40:07.735Z,14.31
2023-03-20T13:42:40.118Z,14.16
2023-03-20T13:45:25.463Z,14.41
2023-03-20T13:47:54.903Z,14.46
2023-03-20T13:50:38.634Z,14.39
2023-03-20T13:53:19.664Z,14.66
2023-03-20T13:55:56.673Z,14.55
2023-03-20T13:58:39.614Z,14.70
2023-03-20T14:01:17.416Z,14.80
2023-03-20T14:03:47.389Z,14.96
2023-03-20T14:06:43.466Z,15.02
2023-03-20T14:09:32.623Z,15.15
2023-03-20T14:12:06.367Z,15.31
2023-03-20T14:14:42.824Z,15.21
2023-03-20T14:17:19.101Z,15.16
2023-03-20T14:19:48.429Z,15.13
2023-03-20T14:22:22.241Z,15.07
2023-03-20T14:25:14.666Z,15.16
2023-03-20T14:27:55.777Z,15.04
2023-03-20T14:30:47.660Z,15.13
2023-03-20T14:33:31.207Z,14.95
2023-03-20T14:36:22.976Z,14.75
2023-03-20T14:39:01.132Z,14.75
2023-03-20T14:41:40.431Z,14.80
2023-03-20T14:44:23.823Z,14.93
2023-03-20T14:46:57.757Z,15.08
2023-03-20T14:49:45.898Z,15.23
2023-03-20T14:52:29.269Z,15.37
2023-03-20T14:55:15.019Z,15.31
2023-03-20T14:57:56.145Z,15.35
2023-03-20T15:00:27.613Z,15.88
2023-03-20T15:03:05.706Z,16.08
2023-03-20T15:05:37.126Z,16.32
2023-03-20T15:08:09.677Z,16.00
2023-03-20T15:10:46.503Z,15.44
2023-03-20T15:13:17.479Z,15.55
2023-03-20T15:15:55.448Z,15.68
2023-03-20T15:18:26.331Z,15.41
2023-03-20T15:20:57.576Z,15.40
2023-03-20T15:23:27.100Z,15.15
2023-03-20T15:25:55.844Z,14.54
2023-03-20T15:28:27.953Z,14.28
2023-03-20T15:30:59.429Z,14.01
2023-03-20T15:33:30.399Z,13.92
2023-03-20T15:35:59.143Z,13.67
2023-03-20T15:38:32.376Z,13.72
2023-03-20T15:41:00.553Z,13.69
2023-03-20T15:43:30.420Z,13.63
2023-03-20T15:46:16.840Z,13.46
2023-03-20T15:48:48.766Z,13.38
2023-03-20T15:51:19.161Z,13.37
2023-03-20T15:53:49.668Z,13.30
2023-03-20T15:56:20.762Z,13.16
2023-03-20T15:58:53.576Z,13.23
2023-03-20T16:01:23.960Z,13.25
2023-03-20T16:03:53.765Z,13.22
2023-03-20T16:06:23.166Z,13.19
2023-03-20T16:09:00.186Z,13.03
2023-03-20T16:11:37.640Z,13.03
2023-03-20T16:14:09.127Z,12.94
2023-03-20T16:16:38.310Z,12.75
2023-03-20T16:19:07.717Z,12.69
2023-03-20T16:21:39.216Z,12.60
2023-03-20T16:24:11.370Z,12.53
2023-03-20T16:26:46.596Z,12.51
2023-03-20T16:29:17.229Z,12.36
2023-03-20T16:31:50.294Z,12.25
2023-03-20T16:34:22.488Z,12.10
2023-03-20T16:36:54.634Z,12.09
2023-03-20T16:39:26.977Z,12.08
2023-03-20T16:42:09.927Z,11.91
2023-03-20T16:44:42.244Z,11.72
2023-03-20T16:47:20.204Z,11.54
2023-03-20T16:50:04.869Z,11.48
2023-03-20T16:52:38.081Z,11.38
2023-03-20T16:55:15.298Z,11.24
2023-03-20T16:57:47.179Z,11.18
2023-03-20T17:00:25.147Z,11.07
2023-03-20T17:03:00.777Z,11.08
2023-03-20T17:05:55.857Z,10.96
2023-03-20T17:08:30.282Z,10.95
2023-03-20T17:11:03.924Z,10.86
2023-03-20T17:13:32.162Z,10.90
2023-03-20T17:16:03.235Z,10.81
2023-03-20T17:18:31.671Z,10.83
2023-03-20T17:21:00.026Z,10.70
2023-03-20T17:23:28.665Z,10.67
2023-03-20T17:25:58.189Z,10.61
2023-03-20T17:28:32.367Z,10.57
2023-03-20T17:31:05.130Z,10.48
2023-03-20T17:33:36.290Z,10.51
2023-03-20T17:36:05.352Z,10.47
2023-03-20T17:38:34.064Z,10.37
2023-03-20T17:41:02.284Z,10.31
2023-03-20T17:43:31.651Z,10.26
2023-03-20T17:46:01.389Z,10.21
2023-03-20T17:48:29.472Z,10.19
2023-03-20T17:50:59.383Z,10.13
2023-03-20T17:53:29.055Z,10.12
2023-03-20T17:55:57.270Z,10.09
2023-03-20T17:58:26.921Z,10.09
2023-03-20T18:00:56.394Z,10.16
2023-03-20T18:03:24.770Z,10.03
2023-03-20T18:05:53.616Z,10.05
2023-03-20T18:08:23.548Z,9.99
2023-03-20T18:10:53.590Z,10.00
2023-03-20T18:13:22.410Z,10.03
2023-03-20T18:15:51.607Z,9.96
2023-03-20T18:18:23.740Z,9.95
2023-03-20T18:20:55.094Z,10.02
2023-03-20T18:23:25.042Z,9.97
2023-03-20T18:25:53.321Z,9.93
2023-03-20T18:28:24.746Z,9.93
2023-03-20T18:30:53.525Z,9.93
2023-03-20T18:33:26.644Z,9.87
2023-03-20T18:35:55.990Z,9.84
2023-03-20T18:38:25.817Z,9.84
2023-03-20T18:40:53.843Z,9.79
2023-03-20T18:43:22.134Z,9.76
2023-03-20T18:45:50.392Z,9.73
2023-03-20T18:48:18.597Z,9.71
2023-03-20T18:50:50.908Z,9.70
2023-03-20T18:53:19.917Z,9.69
2023-03-20T18:55:49.770Z,9.64
2023-03-20T18:58:22.771Z,9.59
2023-03-20T19:00:51.827Z,9.59
2023-03-20T19:03:23.594Z,9.57
2023-03-20T19:05:53.009Z,9.57
2023-03-20T19:08:22.395Z,9.54
2023-03-20T19:10:52.811Z,9.55
2023-03-20T19:13:22.639Z,9.53
2023-03-20T19:15:51.169Z,9.45
2023-03-20T19:18:25.440Z,9.36
2023-03-20T19:20:55.927Z,9.34
2023-03-20T19:23:29.155Z,9.31
2023-03-20T19:26:04.536Z,9.29
2023-03-20T19:28:39.900Z,9.25
2023-03-20T19:31:13.788Z,9.23
2023-03-20T19:33:49.291Z,9.19
2023-03-20T19:36:27.334Z,9.15
2023-03-20T19:38:57.750Z,9.09
2023-03-20T19:41:38.208Z,9.06
2023-03-20T19:44:11.629Z,9.00
2023-03-20T19:46:41.971Z,8.95
2023-03-20T19:49:18.961Z,8.94
2023-03-20T19:51:49.208Z,8.89
2023-03-20T19:54:18.142Z,8.87
2023-03-20T19:56:47.743Z,8.86
2023-03-20T19:59:16.958Z,8.82
2023-03-20T20:01:46.775Z,8.78
2023-03-20T20:04:15.305Z,8.76
2023-03-20T20:06:47.499Z,8.76
2023-03-20T20:09:16.852Z,8.78
2023-03-20T20:11:45.206Z,8.78
2023-03-20T20:14:15.387Z,8.79
2023-03-20T20:16:45.450Z,8.80
2023-03-20T20:19:13.981Z,8.82
2023-03-20T20:24:30.686Z,8.80
2023-03-20T20:27:16.385Z,8.79
2023-03-20T20:29:49.815Z,8.75
2023-03-20T20:32:19.231Z,8.72
2023-03-20T20:40:29.074Z,8.72
2023-03-20T20:43:01.482Z,8.74
2023-03-20T20:45:32.330Z,8.74
2023-03-20T20:48:02.320Z,8.78
2023-03-20T20:50:32.624Z,8.77
2023-03-20T20:53:01.152Z,8.74
2023-03-20T20:55:30.917Z,8.74
2023-03-20T20:57:59.718Z,8.72
2023-03-20T21:00:47.690Z,8.74
2023-03-20T21:03:18.146Z,8.72
2023-03-20T21:05:46.502Z,8.73
2023-03-20T21:08:18.767Z,8.72
2023-03-20T21:10:47.540Z,8.72
2023-03-20T21:13:16.306Z,8.71
2023-03-20T21:15:46.463Z,8.71
2023-03-20T21:18:15.347Z,8.71
2023-03-20T21:20:45.023Z,8.70
2023-03-20T21:23:13.506Z,8.69
2023-03-20T21:25:45.634Z,8.67
2023-03-20T21:28:17.427Z,8.64
2023-03-20T21:31:12.401Z,8.61
2023-03-20T21:33:36.783Z,8.60
2023-03-20T21:36:07.725Z,8.59
2023-03-20T21:41:27.462Z,8.57
2023-03-20T21:44:00.779Z,8.58
2023-03-20T21:47:26.089Z,8.58
2023-03-20T22:01:29.067Z,8.53
2023-03-20T22:04:02.869Z,8.52
2023-03-20T22:07:18.548Z,8.47
2023-03-20T22:09:52.293Z,8.46
2023-03-20T22:12:43.638Z,8.44
2023-03-20T22:21:06.673Z,8.49
2023-03-20T22:24:01.689Z,8.49
2023-03-20T22:35:05.122Z,8.42
2023-03-20T22:38:06.063Z,8.37
2023-03-20T22:44:02.431Z,8.31
2023-03-20T22:46:03.419Z,8.30
2023-03-20T22:48:37.699Z,8.29
2023-03-20T22:51:06.991Z,8.26
2023-03-20T22:53:35.616Z,8.24
2023-03-20T22:56:04.649Z,8.19
2023-03-20T22:58:34.225Z,8.17
2023-03-20T23:01:02.654Z,8.17
2023-03-20T23:03:41.554Z,8.17
2023-03-20T23:06:13.325Z,8.14
2023-03-20T23:08:49.265Z,8.14
2023-03-20T23:11:21.007Z,8.13
2023-03-20T23:13:51.474Z,8.14
2023-03-20T23:16:21.529Z,8.12
2023-03-20T23:18:49.933Z,8.09
2023-03-20T23:21:18.595Z,8.09
2023-03-20T23:23:47.079Z,8.08
2023-03-20T23:26:16.887Z,8.08
2023-03-20T23:28:46.801Z,8.08
2023-03-20T23:31:17.892Z,8.06
2023-03-20T23:33:50.446Z,8.02
2023-03-20T23:36:34.815Z,7.97
2023-03-20T23:39:05.230Z,7.94
2023-03-20T23:42:04.708Z,7.92
2023-03-20T23:44:22.243Z,7.89
2023-03-20T23:46:51.800Z,7.88
2023-03-20T23:49:20.370Z,7.89
2023-03-20T23:51:48.830Z,7.89
2023-03-20T23:54:17.434Z,7.87
2023-03-20T23:56:45.908Z,7.88
2023-03-20T23:59:21.552Z,7.87
